createdAt,value
2023-02-02T00:00:08.000Z,14.6
2023-02-02T00:01:25.000Z,8.6
2023-02-02T00:02:41.000Z,12.9
2023-02-02T00:03:57.000Z,8.1
2023-02-02T00:05:14.000Z,9.2
2023-02-02T00:06:30.000Z,12.2
2023-02-02T00:07:46.000Z,9.4
2023-02-02T00:09:03.254Z,6.3
2023-02-02T00:10:19.000Z,15.5
2023-02-02T00:11:35.000Z,9
2023-02-02T00:12:51.000Z,10.4
2023-02-02T00:14:08.000Z,9
2023-02-02T00:15:23.000Z,13.3
2023-02-02T00:16:39.000Z,4.8
2023-02-02T00:17:56.000Z,11.4
2023-02-02T00:19:12.000Z,13.7
2023-02-02T00:20:28.000Z,12.1
2023-02-02T00:21:44.000Z,11
2023-02-02T00:23:01.000Z,12.8
2023-02-02T00:24:17.000Z,12.1
2023-02-02T00:25:33.000Z,11.1
2023-02-02T00:26:50.000Z,14.1
2023-02-02T00:28:06.000Z,12.7
2023-02-02T00:29:22.000Z,12.6
2023-02-02T00:30:38.000Z,9.2
2023-02-02T00:31:54.000Z,9.1
2023-02-02T00:33:10.000Z,8.1
2023-02-02T00:34:26.000Z,12.1
2023-02-02T00:35:43.000Z,6.2
2023-02-02T00:36:59.000Z,12.9
2023-02-02T00:38:15.000Z,9
2023-02-02T00:39:31.000Z,9.6
2023-02-02T00:40:48.000Z,6
2023-02-02T00:42:04.000Z,8.8
2023-02-02T00:43:20.000Z,14.8
2023-02-02T00:44:37.000Z,6.6
2023-02-02T00:45:53.000Z,8.2
2023-02-02T00:47:09.905Z,6.8
2023-02-02T00:48:24.000Z,9.6
2023-02-02T00:49:41.000Z,7.1
2023-02-02T00:50:57.000Z,9.1
2023-02-02T00:52:13.000Z,9.3
2023-02-02T00:53:30.000Z,6.2
2023-02-02T00:54:46.000Z,6.1
2023-02-02T00:56:02.000Z,11.2
2023-02-02T00:57:18.000Z,12.9
2023-02-02T00:58:35.505Z,8.1
2023-02-02T00:59:51.811Z,11.1
2023-02-02T01:01:07.000Z,9.9
2023-02-02T01:02:24.000Z,8.2
2023-02-02T01:03:40.000Z,3.2
2023-02-02T01:04:55.000Z,6.7
2023-02-02T01:06:12.000Z,14
2023-02-02T01:07:28.000Z,7.5
2023-02-02T01:08:44.000Z,7.1
2023-02-02T01:10:00.000Z,4.7
2023-02-02T01:11:17.000Z,6.3
2023-02-02T01:12:33.000Z,7.6
2023-02-02T01:13:49.000Z,16.4
2023-02-02T01:15:06.263Z,9.9
2023-02-02T01:16:22.000Z,6.7
2023-02-02T01:17:38.000Z,6.5
2023-02-02T01:18:54.000Z,5.8
2023-02-02T01:20:11.000Z,9.4
2023-02-02T01:21:26.000Z,9.7
2023-02-02T01:22:42.000Z,15.6
2023-02-02T01:23:59.278Z,4.5
2023-02-02T01:25:15.000Z,8.4
2023-02-02T01:26:31.000Z,8.7
2023-02-02T01:27:47.000Z,8.6
2023-02-02T01:29:04.000Z,10.9
2023-02-02T01:30:20.000Z,7.6
2023-02-02T01:31:36.000Z,14.2
2023-02-02T01:32:53.000Z,8.6
2023-02-02T01:34:09.000Z,13.3
2023-02-02T01:35:25.000Z,6.1
2023-02-02T01:36:41.000Z,8.3
2023-02-02T01:37:57.475Z,9.5
2023-02-02T01:39:13.000Z,7.9
2023-02-02T01:40:29.000Z,8.9
2023-02-02T01:41:46.000Z,8.6
2023-02-02T01:43:02.000Z,12.4
2023-02-02T01:44:18.000Z,7.6
2023-02-02T01:45:34.000Z,5
2023-02-02T01:46:51.000Z,9
2023-02-02T01:48:07.000Z,11
2023-02-02T01:49:23.000Z,9.1
2023-02-02T01:50:40.343Z,13.8
2023-02-02T01:51:56.000Z,7.5
2023-02-02T01:53:12.000Z,12.9
2023-02-02T01:54:27.000Z,13.1
2023-02-02T01:55:44.000Z,13.6
2023-02-02T01:57:00.000Z,11.2
2023-02-02T01:58:16.000Z,9.6
2023-02-02T01:59:33.371Z,17.2
2023-02-02T02:00:49.000Z,16.1
2023-02-02T02:02:05.000Z,6.7
2023-02-02T02:03:21.000Z,13.6
2023-02-02T02:04:38.583Z,16.5
2023-02-02T02:05:54.000Z,19.9
2023-02-02T02:07:10.000Z,17.9
2023-02-02T02:08:27.000Z,18.7
2023-02-02T02:09:43.000Z,21.1
2023-02-02T02:10:58.000Z,18.9
2023-02-02T02:12:15.000Z,9.9
2023-02-02T02:13:31.562Z,10.4
2023-02-02T02:14:47.000Z,12.3
2023-02-02T02:16:03.000Z,12.7
2023-02-02T02:17:20.000Z,18.3
2023-02-02T02:18:36.000Z,23.9
2023-02-02T02:19:52.000Z,18.9
2023-02-02T02:21:09.000Z,21.7
2023-02-02T02:22:25.000Z,12
2023-02-02T02:23:41.000Z,12.2
2023-02-02T02:24:57.000Z,11.2
2023-02-02T02:26:14.444Z,12.4
2023-02-02T02:27:29.000Z,21.3
2023-02-02T02:28:46.031Z,18.4
2023-02-02T02:30:02.000Z,16.6
2023-02-02T02:31:18.000Z,17.5
2023-02-02T02:32:34.000Z,16.2
2023-02-02T02:33:50.000Z,12.1
2023-02-02T02:35:06.000Z,14.8
2023-02-02T02:36:22.000Z,12.4
2023-02-02T02:37:38.000Z,13.8
2023-02-02T02:38:55.000Z,16.2
2023-02-02T02:40:11.000Z,19
2023-02-02T02:41:27.932Z,16.3
2023-02-02T02:42:43.000Z,10.6
2023-02-02T02:44:00.000Z,18.7
2023-02-02T02:45:16.000Z,21
2023-02-02T02:46:33.078Z,14.9
2023-02-02T02:47:49.000Z,12.3
2023-02-02T02:49:05.000Z,12.3
2023-02-02T02:50:21.000Z,13.2
2023-02-02T02:51:36.000Z,13.8
2023-02-02T02:52:53.000Z,17.5
2023-02-02T02:54:09.000Z,13.8
2023-02-02T02:55:25.000Z,18
2023-02-02T02:56:42.000Z,18.5
2023-02-02T02:57:58.000Z,16.2
2023-02-02T02:59:14.000Z,14.3
2023-02-02T03:00:31.000Z,15.2
2023-02-02T03:01:47.000Z,17.1
2023-02-02T03:03:03.000Z,16.4
2023-02-02T03:04:19.000Z,20.5
2023-02-02T03:05:36.000Z,18.3
2023-02-02T03:06:52.692Z,16.7
2023-02-02T03:08:07.000Z,17.1
2023-02-02T03:09:24.000Z,17.9
2023-02-02T03:10:40.000Z,22.7
2023-02-02T03:11:56.000Z,12.1
2023-02-02T03:13:12.000Z,11
2023-02-02T03:14:29.000Z,23.3
2023-02-02T03:15:45.711Z,16.4
2023-02-02T03:17:01.000Z,25.2
2023-02-02T03:18:18.000Z,22.2
2023-02-02T03:19:34.000Z,17.8
2023-02-02T03:20:50.000Z,13.6
2023-02-02T03:22:06.000Z,15
2023-02-02T03:23:23.000Z,13.7
2023-02-02T03:24:38.000Z,14.2
2023-02-02T03:25:54.000Z,23.9
2023-02-02T03:27:11.000Z,13.7
2023-02-02T03:28:27.000Z,16.2
2023-02-02T03:29:43.000Z,23.3
2023-02-02T03:30:59.000Z,18.9
2023-02-02T03:32:16.484Z,23.2
2023-02-02T03:33:32.000Z,17.3
2023-02-02T03:34:48.000Z,12.9
2023-02-02T03:36:05.000Z,16.2
2023-02-02T03:37:21.000Z,12.7
2023-02-02T03:38:37.000Z,15.4
2023-02-02T03:39:53.000Z,17.9
2023-02-02T03:41:09.490Z,17.1
2023-02-02T03:42:25.000Z,18.6
2023-02-02T03:43:41.000Z,17.4
2023-02-02T03:44:58.000Z,17.1
2023-02-02T03:46:14.000Z,17
2023-02-02T03:47:30.000Z,20
2023-02-02T03:48:46.000Z,18.7
2023-02-02T03:50:03.000Z,20.3
2023-02-02T03:51:19.000Z,18.8
2023-02-02T03:52:35.000Z,12.3
2023-02-02T03:53:52.386Z,15.6
2023-02-02T03:55:08.000Z,21.4
2023-02-02T03:56:24.000Z,24.2
2023-02-02T03:57:40.000Z,15
2023-02-02T03:58:56.000Z,25.7
2023-02-02T04:00:12.000Z,18.2
2023-02-02T04:01:28.000Z,15.3
2023-02-02T04:02:45.000Z,11.2
2023-02-02T04:04:01.000Z,14.4
2023-02-02T04:05:17.000Z,17.5
2023-02-02T04:06:34.000Z,18.2
2023-02-02T04:07:50.000Z,16.2
2023-02-02T04:09:06.000Z,15.1
2023-02-02T04:10:23.128Z,16.2
2023-02-02T04:11:39.000Z,24.5
2023-02-02T04:12:55.000Z,16.1
2023-02-02T04:14:10.990Z,20.1
2023-02-02T04:15:27.305Z,16.4
2023-02-02T04:16:43.000Z,17.6
2023-02-02T04:17:59.993Z,26.3
2023-02-02T04:19:15.000Z,20
2023-02-02T04:20:32.000Z,15.3
2023-02-02T04:21:48.000Z,20.9
2023-02-02T04:23:04.000Z,19.1
2023-02-02T04:24:21.000Z,20.2
2023-02-02T04:25:37.000Z,17.8
2023-02-02T04:26:53.000Z,22.6
2023-02-02T04:28:09.000Z,20.9
2023-02-02T04:29:26.000Z,23.4
2023-02-02T04:30:41.000Z,22.4
2023-02-02T04:31:57.000Z,12.3
2023-02-02T04:33:14.000Z,15.5
2023-02-02T04:34:30.000Z,19.4
2023-02-02T04:35:46.910Z,16.7
2023-02-02T04:37:02.000Z,19.9
2023-02-02T04:38:19.000Z,14.2
2023-02-02T04:39:35.000Z,15.8
2023-02-02T04:40:51.000Z,16.3
2023-02-02T04:42:08.000Z,20.2
2023-02-02T04:43:24.641Z,18.8
2023-02-02T04:44:40.000Z,17.9
2023-02-02T04:45:56.000Z,19.1
2023-02-02T04:47:12.504Z,15.3
2023-02-02T04:48:28.000Z,20.2
2023-02-02T04:49:44.000Z,17.6
2023-02-02T04:51:01.000Z,20.3
2023-02-02T04:52:17.000Z,22.4
2023-02-02T04:53:33.000Z,13.4
2023-02-02T04:54:49.000Z,17.5
2023-02-02T04:56:06.000Z,12.2
2023-02-02T04:57:22.000Z,17.2
2023-02-02T04:58:38.000Z,13.6
2023-02-02T04:59:55.000Z,18.7
2023-02-02T05:01:11.000Z,13
2023-02-02T05:02:27.000Z,21.8
2023-02-02T05:03:43.000Z,10.9
2023-02-02T05:04:59.000Z,13.3
2023-02-02T05:06:15.000Z,15.4
2023-02-02T05:07:31.000Z,11.9
2023-02-02T05:08:48.000Z,8.7
2023-02-02T05:10:04.000Z,11.9
2023-02-02T05:11:20.000Z,10.6
2023-02-02T05:12:37.000Z,16.4
2023-02-02T05:13:53.000Z,10.7
2023-02-02T05:15:09.000Z,13.7
2023-02-02T05:16:25.000Z,15.2
2023-02-02T05:17:42.426Z,13.1
2023-02-02T05:18:58.000Z,11.6
2023-02-02T05:20:13.000Z,15.6
2023-02-02T05:21:30.000Z,12.1
2023-02-02T05:22:46.000Z,8.9
2023-02-02T05:24:02.000Z,10
2023-02-02T05:25:18.000Z,10.2
2023-02-02T05:26:35.472Z,14.9
2023-02-02T05:27:51.000Z,15.6
2023-02-02T05:29:07.000Z,11.3
2023-02-02T05:30:24.000Z,9.5
2023-02-02T05:31:40.000Z,10.7
2023-02-02T05:32:56.000Z,11.2
2023-02-02T05:34:12.000Z,14.7
2023-02-02T05:35:29.000Z,11.4
2023-02-02T05:36:44.000Z,9.3
2023-02-02T05:38:00.000Z,11
2023-02-02T05:39:17.367Z,8.2
2023-02-02T05:40:33.651Z,6.7
2023-02-02T05:41:49.000Z,8.3
2023-02-02T05:43:05.000Z,11.1
2023-02-02T05:44:22.000Z,8.2
2023-02-02T05:45:38.000Z,11.3
2023-02-02T05:46:54.000Z,12.3
2023-02-02T05:48:11.000Z,6.2
2023-02-02T05:49:27.000Z,10.5
2023-02-02T05:50:43.000Z,11.6
2023-02-02T05:51:59.000Z,9.1
2023-02-02T05:53:16.529Z,5.9
2023-02-02T05:54:31.000Z,10.9
2023-02-02T05:55:47.000Z,3.6
2023-02-02T05:57:04.000Z,4.7
2023-02-02T05:58:20.000Z,6.6
2023-02-02T05:59:36.000Z,16.1
2023-02-02T06:00:53.000Z,8.2
2023-02-02T06:02:09.000Z,11.2
2023-02-02T06:03:25.863Z,9.4
2023-02-02T06:05:58.000Z,7.9
2023-02-02T06:07:14.000Z,12.6
2023-02-02T06:08:31.006Z,13.5
2023-02-02T06:09:47.000Z,7.7
2023-02-02T06:11:02.000Z,10.3
2023-02-02T06:12:18.000Z,9.9
2023-02-02T06:13:34.000Z,8.9
2023-02-02T06:14:51.000Z,8.3
2023-02-02T06:16:07.000Z,9
2023-02-02T06:17:24.033Z,8.2
2023-02-02T06:18:40.315Z,10.7
2023-02-02T06:19:56.000Z,10.1
2023-02-02T06:21:12.000Z,6.6
2023-02-02T06:22:29.144Z,9.8
2023-02-02T06:23:45.000Z,16.5
2023-02-02T06:25:01.000Z,7.8
2023-02-02T06:26:18.029Z,8.4
2023-02-02T06:27:33.000Z,5.2
2023-02-02T06:28:49.000Z,12.1
2023-02-02T06:30:05.000Z,10.1
2023-02-02T06:31:21.000Z,4.9
2023-02-02T06:33:54.000Z,10.4
2023-02-02T06:35:09.000Z,9.5
2023-02-02T06:36:25.363Z,6.2
2023-02-02T06:37:41.000Z,11
2023-02-02T06:38:57.000Z,7.9
2023-02-02T06:40:14.000Z,8.4
2023-02-02T06:41:30.000Z,6.4
2023-02-02T06:42:46.000Z,6.1
2023-02-02T06:44:02.000Z,6.2
2023-02-02T06:45:19.000Z,6.1
2023-02-02T06:46:35.000Z,11.3
2023-02-02T06:47:51.929Z,4.9
2023-02-02T06:49:08.150Z,10.3
2023-02-02T06:50:23.000Z,7.3
2023-02-02T06:51:39.000Z,8.2
2023-02-02T06:52:55.000Z,11.1
2023-02-02T06:54:11.000Z,7.6
2023-02-02T06:55:28.000Z,7.8
2023-02-02T06:56:44.000Z,10.9
2023-02-02T06:58:00.000Z,9.1
2023-02-02T06:59:16.000Z,7.8
2023-02-02T07:00:33.000Z,10.7
2023-02-02T07:01:48.000Z,10.6
2023-02-02T07:03:03.000Z,7.9
2023-02-02T07:04:19.000Z,9.4
2023-02-02T07:05:36.000Z,11.4
2023-02-02T07:06:52.516Z,8.9
2023-02-02T07:08:08.000Z,12.6
2023-02-02T07:09:24.000Z,10.9
2023-02-02T07:10:40.000Z,6.9
2023-02-02T07:11:57.451Z,11.1
2023-02-02T07:13:13.661Z,9.6
2023-02-02T07:14:29.000Z,10.6
2023-02-02T07:15:45.000Z,10.1
2023-02-02T07:17:02.000Z,10.4
2023-02-02T07:18:18.000Z,7.8
2023-02-02T07:19:33.864Z,12.3
2023-02-02T07:20:49.000Z,10.2
2023-02-02T07:22:06.000Z,9
2023-02-02T07:23:22.000Z,8.2
2023-02-02T07:24:38.846Z,9.6
2023-02-02T07:25:54.000Z,6.7
2023-02-02T07:27:11.000Z,5.3
2023-02-02T07:28:27.000Z,9.8
2023-02-02T07:29:43.000Z,12
2023-02-02T07:30:59.000Z,5.3
2023-02-02T07:32:15.000Z,13.4
2023-02-02T07:33:32.000Z,8.8
2023-02-02T07:34:48.000Z,5.7
2023-02-02T07:36:03.000Z,9.4
2023-02-02T07:37:19.000Z,6.8
2023-02-02T07:38:36.000Z,6.1
2023-02-02T07:39:52.000Z,11.1
2023-02-02T07:41:08.000Z,7.5
2023-02-02T07:42:24.000Z,6
2023-02-02T07:43:41.000Z,10.4
2023-02-02T07:44:57.000Z,8.7
2023-02-02T07:46:13.777Z,4.6
2023-02-02T07:47:30.038Z,8.2
2023-02-02T07:48:46.000Z,7.1
2023-02-02T07:50:02.000Z,8.5
2023-02-02T07:51:18.000Z,7.6
2023-02-02T07:52:33.000Z,6.4
2023-02-02T07:53:50.205Z,10.4
2023-02-02T07:55:06.000Z,4.8
2023-02-02T07:56:22.000Z,8.7
2023-02-02T07:57:38.000Z,3
2023-02-02T07:58:54.000Z,6.7
2023-02-02T08:00:11.000Z,12.6
2023-02-02T08:01:27.000Z,9.5
2023-02-02T08:02:43.000Z,8
2023-02-02T08:03:59.000Z,8.8
2023-02-02T08:05:16.000Z,5.9
2023-02-02T08:06:32.000Z,7.4
2023-02-02T08:07:48.000Z,7.7
2023-02-02T08:09:03.000Z,5.6
2023-02-02T08:10:20.258Z,6
2023-02-02T08:11:36.000Z,5.8
2023-02-02T08:12:52.000Z,8.2
2023-02-02T08:14:08.000Z,7.6
2023-02-02T08:15:24.000Z,6.6
2023-02-02T08:16:41.429Z,9.1
2023-02-02T08:17:57.000Z,8.6
2023-02-02T08:19:13.889Z,8.1
2023-02-02T08:20:29.000Z,5.7
2023-02-02T08:21:46.343Z,9.4
2023-02-02T08:23:02.000Z,8.9
2023-02-02T08:24:18.000Z,8.4
2023-02-02T08:25:33.000Z,3.8
2023-02-02T08:26:50.000Z,5.9
2023-02-02T08:28:06.000Z,4.7
2023-02-02T08:29:22.767Z,3.4
2023-02-02T08:30:38.000Z,6.5
2023-02-02T08:31:55.000Z,10.5
2023-02-02T08:33:11.000Z,5.7
2023-02-02T08:34:27.701Z,5.9
2023-02-02T08:35:43.000Z,9.4
2023-02-02T08:37:00.195Z,5.9
2023-02-02T08:38:16.000Z,8.3
2023-02-02T08:39:32.000Z,8.4
2023-02-02T08:40:48.000Z,4.4
2023-02-02T08:42:03.000Z,3.8
2023-02-02T08:43:20.000Z,5.5
2023-02-02T08:44:36.576Z,8
2023-02-02T08:45:52.000Z,4.2
2023-02-02T08:47:08.000Z,4.7
2023-02-02T08:48:25.000Z,10.2
2023-02-02T08:49:41.000Z,4.9
2023-02-02T08:50:57.000Z,4.9
2023-02-02T08:52:13.000Z,6.5
2023-02-02T08:53:29.000Z,6.3
2023-02-02T08:54:46.000Z,6.8
2023-02-02T08:56:02.000Z,3.5
2023-02-02T08:57:18.000Z,5.9
2023-02-02T08:58:33.000Z,6.9
2023-02-02T08:59:50.000Z,3.9
2023-02-02T09:01:06.000Z,8.6
2023-02-02T09:02:22.000Z,6.9
2023-02-02T09:03:38.000Z,4.1
2023-02-02T09:06:11.000Z,7.4
2023-02-02T09:07:27.000Z,5.4
2023-02-02T09:08:43.000Z,3.1
2023-02-02T09:10:00.000Z,1.7
2023-02-02T09:11:16.000Z,5.2
2023-02-02T09:12:32.000Z,3.8
2023-02-02T09:13:48.000Z,2.1
2023-02-02T09:15:03.000Z,7.6
2023-02-02T09:16:20.000Z,5.5
2023-02-02T09:17:36.000Z,6.6
2023-02-02T09:18:52.000Z,11.5
2023-02-02T09:20:08.000Z,7.2
2023-02-02T09:21:25.421Z,3.6
2023-02-02T09:22:41.000Z,5.1
2023-02-02T09:23:57.000Z,4.6
2023-02-02T09:25:13.000Z,7.1
2023-02-02T09:26:30.000Z,5.6
2023-02-02T09:27:46.567Z,8.4
2023-02-02T09:29:02.000Z,6.7
2023-02-02T09:30:18.000Z,6
2023-02-02T09:31:34.000Z,3.8
2023-02-02T09:32:50.000Z,5.8
2023-02-02T09:34:06.000Z,3.6
2023-02-02T09:35:22.000Z,5.1
2023-02-02T09:36:39.223Z,6.2
2023-02-02T09:37:55.000Z,6.8
2023-02-02T09:39:11.000Z,6.9
2023-02-02T09:40:27.936Z,7
2023-02-02T09:41:43.000Z,6.9
2023-02-02T09:43:00.000Z,7.4
2023-02-02T09:44:16.000Z,9.3
2023-02-02T09:45:32.000Z,6.8
2023-02-02T09:46:49.100Z,7.7
2023-02-02T09:48:04.000Z,3.9
2023-02-02T09:49:20.000Z,4.4
2023-02-02T09:50:36.000Z,6.3
2023-02-02T09:51:52.000Z,4.9
2023-02-02T09:54:25.518Z,6.8
2023-02-02T09:55:41.000Z,4.2
2023-02-02T09:56:57.978Z,3.9
2023-02-02T09:58:13.000Z,7.6
2023-02-02T09:59:30.000Z,9.1
2023-02-02T10:00:46.000Z,2.2
2023-02-02T10:02:02.000Z,2.4
2023-02-02T10:03:18.000Z,5.4
2023-02-02T10:04:34.000Z,5.1
2023-02-02T10:07:06.868Z,3.9
2023-02-02T10:08:22.000Z,9
2023-02-02T10:09:39.000Z,5.1
2023-02-02T10:10:55.000Z,7.3
2023-02-02T10:12:11.000Z,3.7
2023-02-02T10:13:27.000Z,8.2
2023-02-02T10:14:44.000Z,4.6
2023-02-02T10:16:00.548Z,3.8
2023-02-02T10:17:16.000Z,5.3
2023-02-02T10:18:32.979Z,4
2023-02-02T10:19:48.000Z,5.3
2023-02-02T10:21:04.000Z,5.9
2023-02-02T10:22:20.000Z,2.6
2023-02-02T10:23:36.000Z,6.3
2023-02-02T10:24:52.000Z,3
2023-02-02T10:26:09.000Z,5.8
2023-02-02T10:27:25.000Z,6.9
2023-02-02T10:28:41.000Z,5.8
2023-02-02T10:29:58.089Z,5.7
2023-02-02T10:31:14.000Z,6.7
2023-02-02T10:32:30.000Z,4.4
2023-02-02T10:33:46.000Z,4.5
2023-02-02T10:35:02.000Z,6.8
2023-02-02T10:36:19.000Z,4.5
2023-02-02T10:37:34.000Z,5.5
2023-02-02T10:38:50.000Z,4.8
2023-02-02T10:40:06.966Z,8
2023-02-02T10:41:22.000Z,7.1
2023-02-02T10:42:39.000Z,2.1
2023-02-02T10:43:55.000Z,6.5
2023-02-02T10:45:11.000Z,5.8
2023-02-02T10:46:27.000Z,3.5
2023-02-02T10:47:44.392Z,3
2023-02-02T10:49:00.000Z,5.4
2023-02-02T10:50:16.000Z,5.4
2023-02-02T10:51:32.000Z,7.7
2023-02-02T10:52:49.000Z,5.8
2023-02-02T10:54:04.000Z,5.4
2023-02-02T10:55:20.000Z,5.1
2023-02-02T10:56:37.017Z,9.7
2023-02-02T10:57:53.000Z,5.5
2023-02-02T10:59:09.000Z,5.7
2023-02-02T11:00:25.000Z,9.8
2023-02-02T11:01:41.000Z,4.8
2023-02-02T11:02:57.000Z,8.9
2023-02-02T11:04:14.000Z,7.2
2023-02-02T11:05:29.000Z,5.9
2023-02-02T11:06:45.000Z,7.3
2023-02-02T11:08:02.168Z,7.4
2023-02-02T11:09:18.000Z,10.5
2023-02-02T11:10:34.000Z,4.4
2023-02-02T11:11:50.000Z,4.1
2023-02-02T11:13:07.079Z,6.1
2023-02-02T11:14:23.000Z,9.2
2023-02-02T11:15:39.000Z,4.6
2023-02-02T11:16:55.000Z,9.1
2023-02-02T11:18:11.000Z,8.5
2023-02-02T11:19:28.000Z,7.4
2023-02-02T11:20:44.000Z,5.3
2023-02-02T11:23:15.981Z,8.2
2023-02-02T11:24:31.000Z,7.5
2023-02-02T11:25:48.000Z,6.3
2023-02-02T11:27:04.000Z,4.4
2023-02-02T11:28:20.895Z,9.5
2023-02-02T11:29:37.126Z,7.5
2023-02-02T11:30:53.000Z,8.4
2023-02-02T11:32:09.000Z,6.7
2023-02-02T11:33:25.000Z,9.8
2023-02-02T11:34:41.000Z,7.8
2023-02-02T11:35:58.425Z,7.9
2023-02-02T11:37:14.000Z,11.1
2023-02-02T11:38:29.000Z,8.7
2023-02-02T11:39:45.000Z,7.5
2023-02-02T11:41:02.000Z,5.5
2023-02-02T11:42:18.490Z,7.4
2023-02-02T11:43:34.000Z,4.1
2023-02-02T11:44:50.000Z,6.8
2023-02-02T11:46:07.192Z,4.6
2023-02-02T11:47:23.423Z,4.1
2023-02-02T11:48:39.000Z,9.1
2023-02-02T11:49:55.000Z,6.1
2023-02-02T11:51:11.000Z,8.9
2023-02-02T11:52:28.000Z,5.9
2023-02-02T11:53:44.000Z,6.2
2023-02-02T11:54:59.000Z,9.2
2023-02-02T11:56:16.074Z,6
2023-02-02T11:57:32.000Z,7.2
2023-02-02T11:58:48.000Z,6.3
2023-02-02T12:00:04.837Z,6.6
2023-02-02T12:01:20.000Z,9
2023-02-02T12:02:36.000Z,5.8
2023-02-02T12:03:53.000Z,9.2
2023-02-02T12:05:09.000Z,7.3
2023-02-02T12:06:25.000Z,10.4
2023-02-02T12:07:41.000Z,8.5
2023-02-02T12:08:58.403Z,7.5
2023-02-02T12:10:14.000Z,8.4
2023-02-02T12:11:29.000Z,10.3
2023-02-02T12:12:45.000Z,7.1
2023-02-02T12:14:02.000Z,7
2023-02-02T12:15:18.000Z,9.2
2023-02-02T12:16:34.000Z,9.2
2023-02-02T12:17:50.000Z,6.1
2023-02-02T12:19:07.000Z,8.3
2023-02-02T12:20:23.000Z,11.5
2023-02-02T12:21:39.000Z,8.4
2023-02-02T12:22:55.000Z,10.2
2023-02-02T12:24:11.000Z,8.6
2023-02-02T12:26:44.695Z,4.3
2023-02-02T12:27:59.000Z,8
2023-02-02T12:29:15.000Z,7.3
2023-02-02T12:30:32.000Z,7.3
2023-02-02T12:31:48.000Z,9.1
2023-02-02T12:33:04.000Z,7.2
2023-02-02T12:34:20.000Z,8.8
2023-02-02T12:35:37.000Z,6.9
2023-02-02T12:36:53.000Z,9.3
2023-02-02T12:38:09.820Z,6
2023-02-02T12:39:25.000Z,7.4
2023-02-02T12:40:42.000Z,9.3
2023-02-02T12:41:58.000Z,7.5
2023-02-02T12:43:14.770Z,7.9
2023-02-02T12:44:29.000Z,9.7
2023-02-02T12:45:45.000Z,11.8
2023-02-02T12:47:02.000Z,10.4
2023-02-02T12:48:18.000Z,8.3
2023-02-02T12:49:34.000Z,7.8
2023-02-02T12:50:50.000Z,8.7
2023-02-02T12:52:07.000Z,11.8
2023-02-02T12:53:23.000Z,8.1
2023-02-02T12:54:39.000Z,13.5
2023-02-02T12:55:55.000Z,11.4
2023-02-02T12:57:12.000Z,12
2023-02-02T12:58:28.000Z,10.7
2023-02-02T12:59:44.828Z,8.4
2023-02-02T13:00:59.000Z,9
2023-02-02T13:02:16.000Z,15.1
2023-02-02T13:04:48.000Z,10.4
2023-02-02T13:06:04.000Z,6.2
2023-02-02T13:07:20.000Z,11.5
2023-02-02T13:08:37.000Z,9.2
2023-02-02T13:09:53.703Z,9.9
2023-02-02T13:11:09.000Z,14
2023-02-02T13:12:25.000Z,9.9
2023-02-02T13:13:42.000Z,10.9
2023-02-02T13:14:58.000Z,9.3
2023-02-02T13:16:14.000Z,7.8
2023-02-02T13:17:30.000Z,7.5
2023-02-02T13:18:46.000Z,10
2023-02-02T13:20:02.000Z,8.2
2023-02-02T13:21:18.000Z,13.3
2023-02-02T13:22:34.000Z,9.1
2023-02-02T13:23:51.000Z,8.1
2023-02-02T13:25:07.000Z,9
2023-02-02T13:26:23.000Z,8.3
2023-02-02T13:27:39.000Z,9.8
2023-02-02T13:28:56.238Z,6.8
2023-02-02T13:30:12.000Z,10.7
2023-02-02T13:31:28.000Z,11
2023-02-02T13:32:44.000Z,9.1
2023-02-02T13:34:00.000Z,12.5
2023-02-02T13:35:16.000Z,5.7
2023-02-02T13:36:32.000Z,9.1
2023-02-02T13:37:48.000Z,6.9
2023-02-02T13:39:04.000Z,6.9
2023-02-02T13:40:21.000Z,6.2
2023-02-02T13:41:37.000Z,7.2
2023-02-02T13:42:53.000Z,12
2023-02-02T13:44:09.000Z,9.2
2023-02-02T13:45:26.000Z,7.5
2023-02-02T13:46:42.000Z,9.8
2023-02-02T13:47:58.751Z,11.1
2023-02-02T13:49:14.000Z,8.4
2023-02-02T13:50:30.000Z,8.4
2023-02-02T13:51:46.000Z,10.1
2023-02-02T13:53:02.000Z,8.2
2023-02-02T13:54:18.000Z,8.7
2023-02-02T13:55:34.000Z,7.1
2023-02-02T13:56:51.000Z,6.9
2023-02-02T13:58:07.000Z,11.4
2023-02-02T13:59:23.000Z,7.6
2023-02-02T14:00:39.000Z,11.6
2023-02-02T14:01:56.000Z,7.7
2023-02-02T14:03:12.000Z,7.5
2023-02-02T14:04:28.000Z,6.4
2023-02-02T14:05:44.000Z,4.1
2023-02-02T14:07:01.000Z,6.1
2023-02-02T14:08:16.000Z,4.6
2023-02-02T14:09:32.000Z,7.9
2023-02-02T14:10:48.000Z,10.5
2023-02-02T14:12:04.000Z,8.2
2023-02-02T14:13:21.000Z,8.3
2023-02-02T14:14:37.000Z,5.7
2023-02-02T14:15:53.000Z,7.5
2023-02-02T14:17:09.000Z,8.6
2023-02-02T14:18:26.000Z,7.7
2023-02-02T14:19:42.610Z,5.4
2023-02-02T14:20:58.000Z,6.9
2023-02-02T14:22:14.000Z,11.3
2023-02-02T14:23:31.000Z,6.1
2023-02-02T14:24:46.000Z,5.7
2023-02-02T14:26:02.000Z,11.7
2023-02-02T14:27:18.000Z,13.2
2023-02-02T14:28:35.275Z,8.4
2023-02-02T14:29:51.000Z,9
2023-02-02T14:31:07.000Z,8.1
2023-02-02T14:32:23.000Z,7.3
2023-02-02T14:33:40.198Z,8.2
2023-02-02T14:34:56.000Z,12
2023-02-02T14:36:12.000Z,10.7
2023-02-02T14:37:28.000Z,6.9
2023-02-02T14:38:44.000Z,9
2023-02-02T14:40:01.000Z,8.4
2023-02-02T14:41:16.000Z,11.4
2023-02-02T14:42:32.000Z,16.8
2023-02-02T14:43:48.000Z,14
2023-02-02T14:46:21.000Z,10.8
2023-02-02T14:47:37.000Z,11.6
2023-02-02T14:48:53.000Z,11.5
2023-02-02T14:50:10.000Z,9.5
2023-02-02T14:51:26.000Z,9.8
2023-02-02T14:52:42.000Z,10.7
2023-02-02T14:53:58.000Z,20.3
2023-02-02T14:55:14.000Z,43.8
2023-02-02T14:56:31.000Z,13.2
2023-02-02T14:57:46.673Z,11.4
2023-02-02T14:59:02.000Z,13.4
2023-02-02T15:00:18.000Z,9.8
2023-02-02T15:01:35.000Z,11.8
2023-02-02T15:02:51.000Z,11.8
2023-02-02T15:04:07.000Z,10.5
2023-02-02T15:05:23.000Z,11.6
2023-02-02T15:06:40.000Z,17.6
2023-02-02T15:07:56.000Z,15.4
2023-02-02T15:09:12.774Z,11.2
2023-02-02T15:10:28.000Z,17.1
2023-02-02T15:11:45.242Z,14.7
2023-02-02T15:13:01.000Z,15.9
2023-02-02T15:14:16.000Z,17.8
2023-02-02T15:15:32.000Z,14.2
2023-02-02T15:16:48.000Z,17.9
2023-02-02T15:18:05.000Z,41.4
2023-02-02T15:19:21.000Z,62.4
2023-02-02T15:20:36.000Z,26.4
2023-02-02T15:21:53.163Z,11.7
2023-02-02T15:24:25.000Z,14.4
2023-02-02T15:25:41.000Z,15.9
2023-02-02T15:26:57.000Z,13.9
2023-02-02T15:28:14.000Z,13.4
2023-02-02T15:29:30.000Z,20.2
2023-02-02T15:30:46.000Z,15.1
2023-02-02T15:32:02.000Z,16.5
2023-02-02T15:33:19.000Z,13
2023-02-02T15:34:35.475Z,9.2
2023-02-02T15:35:51.000Z,11.8
2023-02-02T15:37:07.000Z,10.1
2023-02-02T15:38:22.000Z,17.2
2023-02-02T15:39:39.000Z,11.9
2023-02-02T15:40:55.000Z,17.2
2023-02-02T15:42:11.000Z,13.8
2023-02-02T15:43:27.000Z,11.8
2023-02-02T15:44:44.000Z,11.5
2023-02-02T15:46:00.000Z,11.7
2023-02-02T15:47:16.000Z,13.4
2023-02-02T15:48:33.064Z,11.9
2023-02-02T15:49:49.310Z,11.5
2023-02-02T15:51:05.000Z,8.8
2023-02-02T15:52:21.000Z,9.4
2023-02-02T15:53:37.000Z,8.6
2023-02-02T15:54:53.277Z,8.8
2023-02-02T15:56:09.000Z,13.2
2023-02-02T15:57:25.720Z,8.4
2023-02-02T15:58:41.000Z,14.2
2023-02-02T15:59:57.000Z,11.4
2023-02-02T16:01:14.000Z,11.6
2023-02-02T16:02:30.000Z,11.3
2023-02-02T16:03:46.000Z,8.8
2023-02-02T16:05:03.134Z,7.5
2023-02-02T16:06:19.000Z,10.6
2023-02-02T16:07:35.000Z,7.1
2023-02-02T16:08:51.000Z,11
2023-02-02T16:10:07.000Z,13.2
2023-02-02T16:11:23.000Z,10.9
2023-02-02T16:12:39.000Z,12.6
2023-02-02T16:15:11.000Z,9.7
2023-02-02T16:16:28.000Z,9.1
2023-02-02T16:17:44.466Z,10.2
2023-02-02T16:19:00.000Z,12.7
2023-02-02T16:20:16.000Z,11.2
2023-02-02T16:21:32.000Z,13.4
2023-02-02T16:22:49.000Z,12.4
2023-02-02T16:24:05.000Z,15.5
2023-02-02T16:25:21.000Z,14.9
2023-02-02T16:26:37.000Z,10.1
2023-02-02T16:27:54.000Z,13.1
2023-02-02T16:29:09.000Z,14.6
2023-02-02T16:30:25.000Z,14.6
2023-02-02T16:31:41.000Z,12
2023-02-02T16:32:58.000Z,11.4
2023-02-02T16:34:14.000Z,12.6
2023-02-02T16:35:30.000Z,11.3
2023-02-02T16:36:46.000Z,17.5
2023-02-02T16:38:03.246Z,14
2023-02-02T16:39:19.000Z,11.8
2023-02-02T16:40:35.000Z,12
2023-02-02T16:41:51.000Z,20.6
2023-02-02T16:43:08.000Z,10
2023-02-02T16:44:24.000Z,11.1
2023-02-02T16:45:39.869Z,12.9
2023-02-02T16:46:55.000Z,14.8
2023-02-02T16:48:12.000Z,13.6
2023-02-02T16:49:28.000Z,21.6
2023-02-02T16:50:44.000Z,12.7
2023-02-02T16:52:01.000Z,14.2
2023-02-02T16:53:17.000Z,18.9
2023-02-02T16:54:33.000Z,12.1
2023-02-02T16:55:49.000Z,13.3
2023-02-02T16:57:06.000Z,15
2023-02-02T16:58:22.000Z,16
2023-02-02T16:59:38.000Z,22.5
2023-02-02T17:00:55.000Z,15.9
2023-02-02T17:02:10.000Z,19.2
2023-02-02T17:03:26.000Z,15.6
2023-02-02T17:05:59.000Z,13.9
2023-02-02T17:07:15.000Z,17.6
2023-02-02T17:08:31.000Z,21.4
2023-02-02T17:09:48.000Z,19
2023-02-02T17:11:04.000Z,22.2
2023-02-02T17:12:20.000Z,19.8
2023-02-02T17:13:36.000Z,21.4
2023-02-02T17:14:53.000Z,19.6
2023-02-02T17:16:09.000Z,15.9
2023-02-02T17:17:25.000Z,17.3
2023-02-02T17:18:42.000Z,18
2023-02-02T17:19:57.000Z,18.4
2023-02-02T17:21:13.000Z,17.8
2023-02-02T17:22:30.000Z,17.5
2023-02-02T17:23:46.000Z,20.8
2023-02-02T17:25:02.000Z,16.8
2023-02-02T17:26:18.000Z,19.4
2023-02-02T17:27:35.000Z,24
2023-02-02T17:28:51.000Z,24.4
2023-02-02T17:30:07.967Z,22.7
2023-02-02T17:31:24.000Z,22.6